sensor_id;sensor_type;location;lat;lon;timestamp;P1;durP1;ratioP1;P2;durP2;ratioP2
19985;SDS011;10154;52.474;10.768;2023-07-20T00:02:04;1.88;;;1.13;;
19985;SDS011;10154;52.474;10.768;2023-07-20T00:04:30;5.20;;;1.23;;
19985;SDS011;10154;52.474;10.768;2023-07-20T00:06:56;2.03;;;1.38;;
19985;SDS011;10154;52.474;10.768;2023-07-20T00:09:22;1.95;;;1.10;;
19985;SDS011;10154;52.474;10.768;2023-07-20T00:11:48;2.28;;;1.20;;
19985;SDS011;10154;52.474;10.768;2023-07-20T00:14:18;1.63;;;1.20;;
19985;SDS011;10154;52.474;10.768;2023-07-20T00:16:44;3.60;;;1.10;;
19985;SDS011;10154;52.474;10.768;2023-07-20T00:19:11;1.98;;;1.17;;
19985;SDS011;10154;52.474;10.768;2023-07-20T00:21:39;3.38;;;1.60;;
19985;SDS011;10154;52.474;10.768;2023-07-20T00:24:05;2.10;;;1.40;;
19985;SDS011;10154;52.474;10.768;2023-07-20T00:26:31;2.13;;;0.98;;
19985;SDS011;10154;52.474;10.768;2023-07-20T00:28:56;1.85;;;1.40;;
19985;SDS011;10154;52.474;10.768;2023-07-20T00:31:22;3.85;;;1.55;;
19985;SDS011;10154;52.474;10.768;2023-07-20T00:33:47;2.38;;;1.23;;
19985;SDS011;10154;52.474;10.768;2023-07-20T00:36:13;2.50;;;1.33;;
19985;SDS011;10154;52.474;10.768;2023-07-20T00:38:38;2.53;;;1.75;;
19985;SDS011;10154;52.474;10.768;2023-07-20T00:41:04;3.42;;;1.27;;
19985;SDS011;10154;52.474;10.768;2023-07-20T00:43:29;1.90;;;1.10;;
19985;SDS011;10154;52.474;10.768;2023-07-20T00:45:55;2.30;;;1.30;;
19985;SDS011;10154;52.474;10.768;2023-07-20T00:48:20;3.75;;;1.33;;
19985;SDS011;10154;52.474;10.768;2023-07-20T00:50:46;2.83;;;1.15;;
19985;SDS011;10154;52.474;10.768;2023-07-20T00:53:12;1.50;;;1.30;;
19985;SDS011;10154;52.474;10.768;2023-07-20T00:55:38;1.73;;;1.10;;
19985;SDS011;10154;52.474;10.768;2023-07-20T00:58:06;2.65;;;1.27;;
19985;SDS011;10154;52.474;10.768;2023-07-20T01:00:32;2.88;;;1.20;;
19985;SDS011;10154;52.474;10.768;2023-07-20T01:02:57;4.90;;;1.33;;
19985;SDS011;10154;52.474;10.768;2023-07-20T01:05:23;1.70;;;1.10;;
19985;SDS011;10154;52.474;10.768;2023-07-20T01:08:02;1.75;;;1.00;;
19985;SDS011;10154;52.474;10.768;2023-07-20T01:10:54;1.92;;;1.13;;
19985;SDS011;10154;52.474;10.768;2023-07-20T01:13:31;2.13;;;1.08;;
19985;SDS011;10154;52.474;10.768;2023-07-20T01:15:57;1.42;;;1.10;;
19985;SDS011;10154;52.474;10.768;2023-07-20T01:18:42;1.60;;;1.05;;
19985;SDS011;10154;52.474;10.768;2023-07-20T01:21:13;2.13;;;1.20;;
19985;SDS011;10154;52.474;10.768;2023-07-20T01:24:25;1.40;;;1.10;;
19985;SDS011;10154;52.474;10.768;2023-07-20T01:32:33;2.42;;;1.30;;
19985;SDS011;10154;52.474;10.768;2023-07-20T01:35:00;1.77;;;1.20;;
19985;SDS011;10154;52.474;10.768;2023-07-20T01:37:27;3.03;;;1.30;;
19985;SDS011;10154;52.474;10.768;2023-07-20T01:39:54;2.85;;;1.40;;
19985;SDS011;10154;52.474;10.768;2023-07-20T01:42:21;2.78;;;1.10;;
19985;SDS011;10154;52.474;10.768;2023-07-20T01:44:50;3.47;;;1.40;;
19985;SDS011;10154;52.474;10.768;2023-07-20T01:47:16;1.70;;;1.10;;
19985;SDS011;10154;52.474;10.768;2023-07-20T01:49:41;4.97;;;1.10;;
19985;SDS011;10154;52.474;10.768;2023-07-20T01:52:07;3.45;;;1.25;;
19985;SDS011;10154;52.474;10.768;2023-07-20T01:54:32;2.55;;;1.13;;
19985;SDS011;10154;52.474;10.768;2023-07-20T01:56:57;4.70;;;1.15;;
19985;SDS011;10154;52.474;10.768;2023-07-20T01:59:23;2.00;;;1.52;;
19985;SDS011;10154;52.474;10.768;2023-07-20T02:01:48;2.60;;;1.00;;
19985;SDS011;10154;52.474;10.768;2023-07-20T02:04:14;2.33;;;1.02;;
19985;SDS011;10154;52.474;10.768;2023-07-20T02:06:39;2.03;;;1.10;;
19985;SDS011;10154;52.474;10.768;2023-07-20T02:09:04;2.10;;;1.10;;
19985;SDS011;10154;52.474;10.768;2023-07-20T02:11:30;2.45;;;1.20;;
19985;SDS011;10154;52.474;10.768;2023-07-20T02:13:55;1.33;;;1.17;;
19985;SDS011;10154;52.474;10.768;2023-07-20T02:16:20;2.63;;;1.13;;
19985;SDS011;10154;52.474;10.768;2023-07-20T02:18:45;1.83;;;1.20;;
19985;SDS011;10154;52.474;10.768;2023-07-20T02:21:11;2.88;;;1.15;;
19985;SDS011;10154;52.474;10.768;2023-07-20T02:23:36;2.17;;;1.17;;
19985;SDS011;10154;52.474;10.768;2023-07-20T02:26:01;2.55;;;1.10;;
19985;SDS011;10154;52.474;10.768;2023-07-20T02:28:27;3.20;;;1.20;;
19985;SDS011;10154;52.474;10.768;2023-07-20T02:30:52;1.77;;;1.00;;
19985;SDS011;10154;52.474;10.768;2023-07-20T02:33:18;1.40;;;1.10;;
19985;SDS011;10154;52.474;10.768;2023-07-20T02:35:45;1.05;;;0.95;;
19985;SDS011;10154;52.474;10.768;2023-07-20T02:38:10;1.60;;;1.15;;
19985;SDS011;10154;52.474;10.768;2023-07-20T02:40:35;1.20;;;1.10;;
19985;SDS011;10154;52.474;10.768;2023-07-20T02:43:01;2.42;;;1.40;;
19985;SDS011;10154;52.474;10.768;2023-07-20T02:45:26;1.15;;;1.05;;
19985;SDS011;10154;52.474;10.768;2023-07-20T02:47:51;2.25;;;1.10;;
19985;SDS011;10154;52.474;10.768;2023-07-20T02:50:17;2.15;;;1.27;;
19985;SDS011;10154;52.474;10.768;2023-07-20T02:52:42;1.25;;;1.08;;
19985;SDS011;10154;52.474;10.768;2023-07-20T02:55:07;1.73;;;1.40;;
19985;SDS011;10154;52.474;10.768;2023-07-20T02:57:33;1.75;;;1.10;;
19985;SDS011;10154;52.474;10.768;2023-07-20T02:59:58;1.75;;;1.20;;
19985;SDS011;10154;52.474;10.768;2023-07-20T03:02:24;2.85;;;1.33;;
19985;SDS011;10154;52.474;10.768;2023-07-20T03:04:50;1.48;;;1.00;;
19985;SDS011;10154;52.474;10.768;2023-07-20T03:07:15;1.50;;;1.30;;
19985;SDS011;10154;52.474;10.768;2023-07-20T03:09:40;2.03;;;1.10;;
19985;SDS011;10154;52.474;10.768;2023-07-20T03:12:06;1.98;;;1.20;;
19985;SDS011;10154;52.474;10.768;2023-07-20T03:14:32;1.83;;;1.23;;
19985;SDS011;10154;52.474;10.768;2023-07-20T03:16:57;1.85;;;1.33;;
19985;SDS011;10154;52.474;10.768;2023-07-20T03:19:22;1.73;;;1.38;;
19985;SDS011;10154;52.474;10.768;2023-07-20T03:21:48;1.95;;;1.38;;
19985;SDS011;10154;52.474;10.768;2023-07-20T03:24:13;3.08;;;1.40;;
19985;SDS011;10154;52.474;10.768;2023-07-20T03:26:38;2.10;;;1.15;;
19985;SDS011;10154;52.474;10.768;2023-07-20T03:29:04;2.42;;;1.42;;
19985;SDS011;10154;52.474;10.768;2023-07-20T03:31:30;1.50;;;1.13;;
19985;SDS011;10154;52.474;10.768;2023-07-20T03:33:55;2.13;;;1.30;;
19985;SDS011;10154;52.474;10.768;2023-07-20T03:36:20;2.83;;;1.30;;
19985;SDS011;10154;52.474;10.768;2023-07-20T03:38:47;2.63;;;1.30;;
19985;SDS011;10154;52.474;10.768;2023-07-20T03:41:12;1.40;;;1.13;;
19985;SDS011;10154;52.474;10.768;2023-07-20T03:43:37;1.77;;;1.17;;
19985;SDS011;10154;52.474;10.768;2023-07-20T03:46:03;2.63;;;1.23;;
19985;SDS011;10154;52.474;10.768;2023-07-20T03:48:32;1.95;;;1.27;;
19985;SDS011;10154;52.474;10.768;2023-07-20T03:50:57;1.77;;;1.30;;
19985;SDS011;10154;52.474;10.768;2023-07-20T03:53:23;2.70;;;1.10;;
19985;SDS011;10154;52.474;10.768;2023-07-20T03:55:48;1.95;;;1.25;;
19985;SDS011;10154;52.474;10.768;2023-07-20T03:58:15;1.60;;;1.15;;
19985;SDS011;10154;52.474;10.768;2023-07-20T04:00:44;1.42;;;1.10;;
19985;SDS011;10154;52.474;10.768;2023-07-20T04:03:11;4.30;;;1.27;;
19985;SDS011;10154;52.474;10.768;2023-07-20T04:05:36;2.67;;;1.30;;
19985;SDS011;10154;52.474;10.768;2023-07-20T04:08:01;2.88;;;1.45;;
19985;SDS011;10154;52.474;10.768;2023-07-20T04:10:27;2.42;;;1.40;;
19985;SDS011;10154;52.474;10.768;2023-07-20T04:12:52;1.80;;;1.33;;
19985;SDS011;10154;52.474;10.768;2023-07-20T04:15:17;4.55;;;1.50;;
19985;SDS011;10154;52.474;10.768;2023-07-20T04:17:43;2.95;;;1.27;;
19985;SDS011;10154;52.474;10.768;2023-07-20T04:20:10;1.77;;;1.30;;
19985;SDS011;10154;52.474;10.768;2023-07-20T04:22:35;1.50;;;1.23;;
19985;SDS011;10154;52.474;10.768;2023-07-20T04:25:01;3.25;;;1.35;;
19985;SDS011;10154;52.474;10.768;2023-07-20T04:27:26;2.40;;;1.60;;
19985;SDS011;10154;52.474;10.768;2023-07-20T04:29:52;1.58;;;1.27;;
19985;SDS011;10154;52.474;10.768;2023-07-20T04:32:17;1.95;;;1.20;;
19985;SDS011;10154;52.474;10.768;2023-07-20T04:34:42;1.45;;;1.25;;
19985;SDS011;10154;52.474;10.768;2023-07-20T04:37:08;2.83;;;1.33;;
19985;SDS011;10154;52.474;10.768;2023-07-20T04:39:33;2.08;;;1.50;;
19985;SDS011;10154;52.474;10.768;2023-07-20T04:41:59;2.75;;;1.30;;
19985;SDS011;10154;52.474;10.768;2023-07-20T04:44:24;2.85;;;1.30;;
19985;SDS011;10154;52.474;10.768;2023-07-20T04:46:49;2.03;;;1.33;;
19985;SDS011;10154;52.474;10.768;2023-07-20T04:49:15;4.55;;;1.20;;
19985;SDS011;10154;52.474;10.768;2023-07-20T04:51:40;2.25;;;1.40;;
19985;SDS011;10154;52.474;10.768;2023-07-20T04:54:08;3.85;;;1.50;;
19985;SDS011;10154;52.474;10.768;2023-07-20T04:56:33;1.98;;;1.20;;
19985;SDS011;10154;52.474;10.768;2023-07-20T04:58:59;1.63;;;1.23;;
19985;SDS011;10154;52.474;10.768;2023-07-20T05:01:24;2.83;;;1.20;;
19985;SDS011;10154;52.474;10.768;2023-07-20T05:03:51;3.17;;;1.60;;
19985;SDS011;10154;52.474;10.768;2023-07-20T05:06:17;1.50;;;1.30;;
19985;SDS011;10154;52.474;10.768;2023-07-20T05:08:43;1.77;;;1.02;;
19985;SDS011;10154;52.474;10.768;2023-07-20T05:11:08;2.95;;;1.20;;
19985;SDS011;10154;52.474;10.768;2023-07-20T05:13:33;1.42;;;1.10;;
19985;SDS011;10154;52.474;10.768;2023-07-20T05:15:59;1.63;;;1.23;;
19985;SDS011;10154;52.474;10.768;2023-07-20T05:18:25;1.60;;;1.10;;
19985;SDS011;10154;52.474;10.768;2023-07-20T05:20:50;2.17;;;1.25;;
19985;SDS011;10154;52.474;10.768;2023-07-20T05:23:17;3.05;;;1.20;;
19985;SDS011;10154;52.474;10.768;2023-07-20T05:25:42;1.88;;;1.10;;
19985;SDS011;10154;52.474;10.768;2023-07-20T05:28:08;2.90;;;1.20;;
19985;SDS011;10154;52.474;10.768;2023-07-20T05:30:33;3.60;;;1.15;;
19985;SDS011;10154;52.474;10.768;2023-07-20T05:32:58;3.08;;;1.00;;
19985;SDS011;10154;52.474;10.768;2023-07-20T05:35:25;2.13;;;1.30;;
19985;SDS011;10154;52.474;10.768;2023-07-20T05:37:50;2.40;;;1.27;;
19985;SDS011;10154;52.474;10.768;2023-07-20T05:40:16;2.17;;;1.17;;
19985;SDS011;10154;52.474;10.768;2023-07-20T05:42:47;2.20;;;1.23;;
19985;SDS011;10154;52.474;10.768;2023-07-20T05:45:13;1.48;;;1.00;;
19985;SDS011;10154;52.474;10.768;2023-07-20T05:47:39;2.72;;;1.20;;
19985;SDS011;10154;52.474;10.768;2023-07-20T05:50:06;1.95;;;1.02;;
19985;SDS011;10154;52.474;10.768;2023-07-20T05:52:31;4.88;;;1.13;;
19985;SDS011;10154;52.474;10.768;2023-07-20T05:54:57;3.70;;;1.10;;
19985;SDS011;10154;52.474;10.768;2023-07-20T05:57:22;3.75;;;1.20;;
19985;SDS011;10154;52.474;10.768;2023-07-20T05:59:48;2.17;;;1.38;;
19985;SDS011;10154;52.474;10.768;2023-07-20T06:02:13;3.25;;;1.20;;
19985;SDS011;10154;52.474;10.768;2023-07-20T06:04:39;3.60;;;0.93;;
19985;SDS011;10154;52.474;10.768;2023-07-20T06:07:07;2.05;;;1.15;;
19985;SDS011;10154;52.474;10.768;2023-07-20T06:09:33;3.35;;;1.00;;
19985;SDS011;10154;52.474;10.768;2023-07-20T06:11:58;2.50;;;1.02;;
19985;SDS011;10154;52.474;10.768;2023-07-20T06:14:23;2.03;;;1.02;;
19985;SDS011;10154;52.474;10.768;2023-07-20T06:16:49;3.05;;;1.30;;
19985;SDS011;10154;52.474;10.768;2023-07-20T06:19:14;3.67;;;1.40;;
19985;SDS011;10154;52.474;10.768;2023-07-20T06:21:43;2.80;;;1.35;;
19985;SDS011;10154;52.474;10.768;2023-07-20T06:24:08;4.50;;;1.50;;
19985;SDS011;10154;52.474;10.768;2023-07-20T06:26:33;5.45;;;1.42;;
19985;SDS011;10154;52.474;10.768;2023-07-20T06:29:04;2.00;;;1.20;;
19985;SDS011;10154;52.474;10.768;2023-07-20T06:31:32;2.90;;;1.33;;
19985;SDS011;10154;52.474;10.768;2023-07-20T06:33:58;5.10;;;1.33;;
19985;SDS011;10154;52.474;10.768;2023-07-20T06:36:24;3.17;;;1.20;;
19985;SDS011;10154;52.474;10.768;2023-07-20T06:38:51;1.95;;;1.00;;
19985;SDS011;10154;52.474;10.768;2023-07-20T06:41:16;1.45;;;0.90;;
19985;SDS011;10154;52.474;10.768;2023-07-20T06:43:41;3.95;;;1.17;;
19985;SDS011;10154;52.474;10.768;2023-07-20T06:46:07;2.28;;;0.88;;
19985;SDS011;10154;52.474;10.768;2023-07-20T06:48:32;4.57;;;1.05;;
19985;SDS011;10154;52.474;10.768;2023-07-20T06:50:58;1.10;;;0.95;;
19985;SDS011;10154;52.474;10.768;2023-07-20T06:53:23;2.17;;;1.00;;
19985;SDS011;10154;52.474;10.768;2023-07-20T06:55:49;1.67;;;1.15;;
19985;SDS011;10154;52.474;10.768;2023-07-20T06:58:15;2.13;;;0.93;;
19985;SDS011;10154;52.474;10.768;2023-07-20T07:00:40;2.95;;;0.88;;
19985;SDS011;10154;52.474;10.768;2023-07-20T07:03:05;1.95;;;1.00;;
19985;SDS011;10154;52.474;10.768;2023-07-20T07:05:34;1.75;;;0.90;;
19985;SDS011;10154;52.474;10.768;2023-07-20T07:08:00;1.30;;;1.00;;
19985;SDS011;10154;52.474;10.768;2023-07-20T07:10:26;2.15;;;0.85;;
19985;SDS011;10154;52.474;10.768;2023-07-20T07:12:51;1.38;;;0.75;;
19985;SDS011;10154;52.474;10.768;2023-07-20T07:15:16;0.77;;;0.70;;
19985;SDS011;10154;52.474;10.768;2023-07-20T07:17:42;1.27;;;0.60;;
19985;SDS011;10154;52.474;10.768;2023-07-20T07:20:08;0.68;;;0.63;;
19985;SDS011;10154;52.474;10.768;2023-07-20T07:22:34;1.40;;;0.60;;
19985;SDS011;10154;52.474;10.768;2023-07-20T07:24:59;1.35;;;0.57;;
19985;SDS011;10154;52.474;10.768;2023-07-20T07:27:24;0.60;;;0.50;;
19985;SDS011;10154;52.474;10.768;2023-07-20T07:29:50;0.52;;;0.50;;
19985;SDS011;10154;52.474;10.768;2023-07-20T07:32:15;0.80;;;0.50;;
19985;SDS011;10154;52.474;10.768;2023-07-20T07:34:40;0.82;;;0.60;;
19985;SDS011;10154;52.474;10.768;2023-07-20T07:37:06;0.70;;;0.40;;
19985;SDS011;10154;52.474;10.768;2023-07-20T07:39:31;2.92;;;0.50;;
19985;SDS011;10154;52.474;10.768;2023-07-20T07:41:57;1.83;;;0.50;;
19985;SDS011;10154;52.474;10.768;2023-07-20T07:44:22;0.50;;;0.40;;
19985;SDS011;10154;52.474;10.768;2023-07-20T07:46:48;1.05;;;0.50;;
19985;SDS011;10154;52.474;10.768;2023-07-20T07:49:14;0.65;;;0.40;;
19985;SDS011;10154;52.474;10.768;2023-07-20T07:51:39;0.45;;;0.40;;
19985;SDS011;10154;52.474;10.768;2023-07-20T07:54:05;0.40;;;0.40;;
19985;SDS011;10154;52.474;10.768;2023-07-20T07:56:30;0.65;;;0.50;;
19985;SDS011;10154;52.474;10.768;2023-07-20T07:58:55;0.93;;;0.50;;
19985;SDS011;10154;52.474;10.768;2023-07-20T08:01:21;0.65;;;0.40;;
19985;SDS011;10154;52.474;10.768;2023-07-20T08:03:47;1.23;;;0.50;;
19985;SDS011;10154;52.474;10.768;2023-07-20T08:06:13;1.15;;;0.35;;
19985;SDS011;10154;52.474;10.768;2023-07-20T08:08:38;0.45;;;0.40;;
19985;SDS011;10154;52.474;10.768;2023-07-20T08:11:04;1.45;;;0.50;;
19985;SDS011;10154;52.474;10.768;2023-07-20T08:13:29;0.35;;;0.22;;
19985;SDS011;10154;52.474;10.768;2023-07-20T08:15:55;1.30;;;0.47;;
19985;SDS011;10154;52.474;10.768;2023-07-20T08:18:20;0.40;;;0.40;;
19985;SDS011;10154;52.474;10.768;2023-07-20T08:20:46;2.30;;;0.50;;
19985;SDS011;10154;52.474;10.768;2023-07-20T08:23:12;0.70;;;0.40;;
19985;SDS011;10154;52.474;10.768;2023-07-20T08:25:38;0.50;;;0.43;;
19985;SDS011;10154;52.474;10.768;2023-07-20T08:28:06;1.08;;;0.40;;
19985;SDS011;10154;52.474;10.768;2023-07-20T08:30:39;1.30;;;0.52;;
19985;SDS011;10154;52.474;10.768;2023-07-20T08:33:08;0.50;;;0.40;;
19985;SDS011;10154;52.474;10.768;2023-07-20T08:35:34;0.77;;;0.52;;
19985;SDS011;10154;52.474;10.768;2023-07-20T08:38:00;0.93;;;0.45;;
19985;SDS011;10154;52.474;10.768;2023-07-20T08:40:26;1.20;;;0.40;;
19985;SDS011;10154;52.474;10.768;2023-07-20T08:42:52;1.10;;;0.50;;
19985;SDS011;10154;52.474;10.768;2023-07-20T08:45:19;1.10;;;0.43;;
19985;SDS011;10154;52.474;10.768;2023-07-20T08:47:44;1.95;;;0.32;;
19985;SDS011;10154;52.474;10.768;2023-07-20T08:50:10;0.52;;;0.30;;
19985;SDS011;10154;52.474;10.768;2023-07-20T08:52:36;0.70;;;0.40;;
19985;SDS011;10154;52.474;10.768;2023-07-20T08:55:02;1.20;;;0.60;;
19985;SDS011;10154;52.474;10.768;2023-07-20T08:57:33;1.13;;;0.40;;
19985;SDS011;10154;52.474;10.768;2023-07-20T09:00:00;1.17;;;0.40;;
19985;SDS011;10154;52.474;10.768;2023-07-20T09:02:29;2.05;;;0.40;;
19985;SDS011;10154;52.474;10.768;2023-07-20T09:04:56;4.68;;;0.50;;
19985;SDS011;10154;52.474;10.768;2023-07-20T09:07:21;0.77;;;0.60;;
19985;SDS011;10154;52.474;10.768;2023-07-20T09:10:07;1.42;;;0.50;;
19985;SDS011;10154;52.474;10.768;2023-07-20T09:12:36;1.25;;;0.50;;
19985;SDS011;10154;52.474;10.768;2023-07-20T09:15:03;1.35;;;0.50;;
19985;SDS011;10154;52.474;10.768;2023-07-20T09:17:29;1.23;;;0.60;;
19985;SDS011;10154;52.474;10.768;2023-07-20T09:19:55;1.63;;;0.50;;
19985;SDS011;10154;52.474;10.768;2023-07-20T09:22:20;0.93;;;0.50;;
19985;SDS011;10154;52.474;10.768;2023-07-20T09:24:45;0.95;;;0.50;;
19985;SDS011;10154;52.474;10.768;2023-07-20T09:27:11;0.50;;;0.50;;
19985;SDS011;10154;52.474;10.768;2023-07-20T09:29:49;0.60;;;0.50;;
19985;SDS011;10154;52.474;10.768;2023-07-20T09:32:17;1.27;;;0.43;;
19985;SDS011;10154;52.474;10.768;2023-07-20T09:34:44;1.27;;;0.60;;
19985;SDS011;10154;52.474;10.768;2023-07-20T09:37:09;0.80;;;0.45;;
19985;SDS011;10154;52.474;10.768;2023-07-20T09:39:41;1.08;;;0.50;;
19985;SDS011;10154;52.474;10.768;2023-07-20T09:42:21;2.25;;;0.47;;
19985;SDS011;10154;52.474;10.768;2023-07-20T09:44:47;0.63;;;0.40;;
19985;SDS011;10154;52.474;10.768;2023-07-20T09:47:12;2.58;;;0.50;;
19985;SDS011;10154;52.474;10.768;2023-07-20T09:49:41;0.50;;;0.50;;
19985;SDS011;10154;52.474;10.768;2023-07-20T09:52:08;2.67;;;0.50;;
19985;SDS011;10154;52.474;10.768;2023-07-20T09:54:34;1.25;;;0.50;;
19985;SDS011;10154;52.474;10.768;2023-07-20T09:57:02;1.98;;;0.50;;
19985;SDS011;10154;52.474;10.768;2023-07-20T09:59:31;0.80;;;0.60;;
19985;SDS011;10154;52.474;10.768;2023-07-20T10:01:57;0.95;;;0.50;;
19985;SDS011;10154;52.474;10.768;2023-07-20T10:04:24;2.70;;;0.40;;
19985;SDS011;10154;52.474;10.768;2023-07-20T10:06:50;0.60;;;0.43;;
19985;SDS011;10154;52.474;10.768;2023-07-20T10:09:18;4.25;;;0.52;;
19985;SDS011;10154;52.474;10.768;2023-07-20T10:11:46;2.20;;;0.50;;
19985;SDS011;10154;52.474;10.768;2023-07-20T10:14:16;0.55;;;0.50;;
19985;SDS011;10154;52.474;10.768;2023-07-20T10:16:46;0.90;;;0.47;;
19985;SDS011;10154;52.474;10.768;2023-07-20T10:21:54;0.50;;;0.50;;
19985;SDS011;10154;52.474;10.768;2023-07-20T10:24:22;0.55;;;0.50;;
19985;SDS011;10154;52.474;10.768;2023-07-20T10:26:50;0.40;;;0.40;;
19985;SDS011;10154;52.474;10.768;2023-07-20T10:29:16;0.60;;;0.50;;
19985;SDS011;10154;52.474;10.768;2023-07-20T10:31:41;2.33;;;0.57;;
19985;SDS011;10154;52.474;10.768;2023-07-20T10:34:07;0.60;;;0.60;;
19985;SDS011;10154;52.474;10.768;2023-07-20T10:36:32;0.75;;;0.60;;
19985;SDS011;10154;52.474;10.768;2023-07-20T10:39:26;2.50;;;0.73;;
19985;SDS011;10154;52.474;10.768;2023-07-20T10:44:29;0.60;;;0.50;;
19985;SDS011;10154;52.474;10.768;2023-07-20T10:47:01;0.60;;;0.60;;
19985;SDS011;10154;52.474;10.768;2023-07-20T10:49:27;1.42;;;0.70;;
19985;SDS011;10154;52.474;10.768;2023-07-20T10:51:56;0.50;;;0.50;;
19985;SDS011;10154;52.474;10.768;2023-07-20T10:56:49;0.77;;;0.60;;
19985;SDS011;10154;52.474;10.768;2023-07-20T11:01:50;1.85;;;0.55;;
19985;SDS011;10154;52.474;10.768;2023-07-20T11:04:20;1.30;;;0.70;;
19985;SDS011;10154;52.474;10.768;2023-07-20T11:07:09;1.73;;;0.60;;
19985;SDS011;10154;52.474;10.768;2023-07-20T11:09:38;0.98;;;0.65;;
19985;SDS011;10154;52.474;10.768;2023-07-20T11:12:10;1.15;;;0.60;;
19985;SDS011;10154;52.474;10.768;2023-07-20T11:14:40;2.83;;;0.60;;
19985;SDS011;10154;52.474;10.768;2023-07-20T11:17:13;0.95;;;0.75;;
19985;SDS011;10154;52.474;10.768;2023-07-20T11:19:39;0.95;;;0.70;;
19985;SDS011;10154;52.474;10.768;2023-07-20T11:22:05;1.65;;;0.60;;
19985;SDS011;10154;52.474;10.768;2023-07-20T11:24:36;1.00;;;0.60;;
19985;SDS011;10154;52.474;10.768;2023-07-20T11:27:03;1.65;;;0.70;;
19985;SDS011;10154;52.474;10.768;2023-07-20T11:29:29;0.98;;;0.60;;
19985;SDS011;10154;52.474;10.768;2023-07-20T11:31:54;0.60;;;0.60;;
19985;SDS011;10154;52.474;10.768;2023-07-20T11:34:21;0.65;;;0.50;;
19985;SDS011;10154;52.474;10.768;2023-07-20T11:36:48;1.25;;;0.60;;
19985;SDS011;10154;52.474;10.768;2023-07-20T11:39:14;2.58;;;0.70;;
19985;SDS011;10154;52.474;10.768;2023-07-20T11:41:44;0.60;;;0.60;;
19985;SDS011;10154;52.474;10.768;2023-07-20T11:44:12;2.33;;;0.60;;
19985;SDS011;10154;52.474;10.768;2023-07-20T11:46:41;1.45;;;0.60;;
19985;SDS011;10154;52.474;10.768;2023-07-20T11:49:10;0.50;;;0.50;;
19985;SDS011;10154;52.474;10.768;2023-07-20T11:51:35;1.15;;;0.68;;
19985;SDS011;10154;52.474;10.768;2023-07-20T11:54:01;0.82;;;0.60;;
19985;SDS011;10154;52.474;10.768;2023-07-20T11:56:27;1.52;;;0.60;;
19985;SDS011;10154;52.474;10.768;2023-07-20T11:58:59;0.90;;;0.60;;
19985;SDS011;10154;52.474;10.768;2023-07-20T12:01:26;2.22;;;0.70;;
19985;SDS011;10154;52.474;10.768;2023-07-20T12:04:03;1.50;;;0.60;;
19985;SDS011;10154;52.474;10.768;2023-07-20T12:06:29;3.55;;;0.57;;
19985;SDS011;10154;52.474;10.768;2023-07-20T12:08:55;1.55;;;0.60;;
19985;SDS011;10154;52.474;10.768;2023-07-20T12:11:57;1.73;;;0.80;;
19985;SDS011;10154;52.474;10.768;2023-07-20T12:14:15;2.63;;;0.70;;
19985;SDS011;10154;52.474;10.768;2023-07-20T12:16:41;3.80;;;0.70;;
19985;SDS011;10154;52.474;10.768;2023-07-20T12:19:10;1.38;;;0.60;;
19985;SDS011;10154;52.474;10.768;2023-07-20T12:21:39;2.00;;;0.60;;
19985;SDS011;10154;52.474;10.768;2023-07-20T12:24:06;1.52;;;0.60;;
19985;SDS011;10154;52.474;10.768;2023-07-20T12:26:34;1.00;;;0.50;;
19985;SDS011;10154;52.474;10.768;2023-07-20T12:28:59;0.57;;;0.55;;
19985;SDS011;10154;52.474;10.768;2023-07-20T12:31:25;1.02;;;0.60;;
19985;SDS011;10154;52.474;10.768;2023-07-20T12:33:52;0.68;;;0.60;;
19985;SDS011;10154;52.474;10.768;2023-07-20T12:36:18;1.48;;;0.70;;
19985;SDS011;10154;52.474;10.768;2023-07-20T12:38:43;1.90;;;0.70;;
19985;SDS011;10154;52.474;10.768;2023-07-20T12:41:10;1.48;;;0.70;;
19985;SDS011;10154;52.474;10.768;2023-07-20T12:43:43;2.40;;;0.80;;
19985;SDS011;10154;52.474;10.768;2023-07-20T12:46:11;2.58;;;0.80;;
19985;SDS011;10154;52.474;10.768;2023-07-20T12:48:38;1.95;;;0.70;;
19985;SDS011;10154;52.474;10.768;2023-07-20T12:51:06;2.33;;;0.90;;
19985;SDS011;10154;52.474;10.768;2023-07-20T12:53:32;1.15;;;0.70;;
19985;SDS011;10154;52.474;10.768;2023-07-20T12:55:58;1.33;;;0.85;;
19985;SDS011;10154;52.474;10.768;2023-07-20T12:58:24;1.50;;;0.60;;
19985;SDS011;10154;52.474;10.768;2023-07-20T13:00:49;2.08;;;0.90;;
19985;SDS011;10154;52.474;10.768;2023-07-20T13:03:15;1.00;;;0.60;;
19985;SDS011;10154;52.474;10.768;2023-07-20T13:05:41;1.63;;;0.95;;
19985;SDS011;10154;52.474;10.768;2023-07-20T13:08:07;2.17;;;0.98;;
19985;SDS011;10154;52.474;10.768;2023-07-20T13:10:35;2.17;;;0.70;;
19985;SDS011;10154;52.474;10.768;2023-07-20T13:13:00;0.85;;;0.75;;
19985;SDS011;10154;52.474;10.768;2023-07-20T13:15:29;1.98;;;0.75;;
19985;SDS011;10154;52.474;10.768;2023-07-20T13:17:57;2.15;;;0.90;;
19985;SDS011;10154;52.474;10.768;2023-07-20T13:20:22;3.88;;;0.82;;
19985;SDS011;10154;52.474;10.768;2023-07-20T13:22:48;4.15;;;0.88;;
19985;SDS011;10154;52.474;10.768;2023-07-20T13:25:13;1.38;;;0.77;;
19985;SDS011;10154;52.474;10.768;2023-07-20T13:27:39;2.60;;;0.73;;
19985;SDS011;10154;52.474;10.768;2023-07-20T13:30:05;1.23;;;0.85;;
19985;SDS011;10154;52.474;10.768;2023-07-20T13:32:32;2.00;;;0.88;;
19985;SDS011;10154;52.474;10.768;2023-07-20T13:34:58;1.88;;;0.90;;
19985;SDS011;10154;52.474;10.768;2023-07-20T13:37:24;2.28;;;0.80;;
19985;SDS011;10154;52.474;10.768;2023-07-20T13:39:50;1.77;;;1.00;;
19985;SDS011;10154;52.474;10.768;2023-07-20T13:42:15;1.85;;;1.10;;
19985;SDS011;10154;52.474;10.768;2023-07-20T13:44:42;2.20;;;0.85;;
19985;SDS011;10154;52.474;10.768;2023-07-20T13:47:07;5.03;;;1.00;;
19985;SDS011;10154;52.474;10.768;2023-07-20T13:49:33;1.85;;;1.00;;
19985;SDS011;10154;52.474;10.768;2023-07-20T13:51:58;1.58;;;1.00;;
19985;SDS011;10154;52.474;10.768;2023-07-20T13:54:24;2.13;;;0.98;;
19985;SDS011;10154;52.474;10.768;2023-07-20T13:56:50;1.85;;;0.80;;
19985;SDS011;10154;52.474;10.768;2023-07-20T13:59:16;3.08;;;0.98;;
19985;SDS011;10154;52.474;10.768;2023-07-20T14:01:42;2.40;;;0.82;;
19985;SDS011;10154;52.474;10.768;2023-07-20T14:04:07;1.52;;;0.90;;
19985;SDS011;10154;52.474;10.768;2023-07-20T14:06:34;1.77;;;1.08;;
19985;SDS011;10154;52.474;10.768;2023-07-20T14:08:59;1.50;;;0.90;;
19985;SDS011;10154;52.474;10.768;2023-07-20T14:11:25;1.60;;;0.98;;
19985;SDS011;10154;52.474;10.768;2023-07-20T14:13:51;3.83;;;1.05;;
19985;SDS011;10154;52.474;10.768;2023-07-20T14:16:18;3.33;;;1.00;;
19985;SDS011;10154;52.474;10.768;2023-07-20T14:18:44;2.20;;;0.90;;
19985;SDS011;10154;52.474;10.768;2023-07-20T14:21:12;6.57;;;1.40;;
19985;SDS011;10154;52.474;10.768;2023-07-20T14:23:37;2.25;;;0.95;;
19985;SDS011;10154;52.474;10.768;2023-07-20T14:26:03;3.80;;;0.90;;
19985;SDS011;10154;52.474;10.768;2023-07-20T14:28:30;3.80;;;0.90;;
19985;SDS011;10154;52.474;10.768;2023-07-20T14:30:56;2.25;;;0.90;;
19985;SDS011;10154;52.474;10.768;2023-07-20T14:33:22;3.08;;;0.90;;
19985;SDS011;10154;52.474;10.768;2023-07-20T14:35:47;1.42;;;0.90;;
19985;SDS011;10154;52.474;10.768;2023-07-20T14:38:13;2.58;;;0.80;;
19985;SDS011;10154;52.474;10.768;2023-07-20T14:40:38;3.22;;;1.00;;
19985;SDS011;10154;52.474;10.768;2023-07-20T14:43:03;3.15;;;0.85;;
19985;SDS011;10154;52.474;10.768;2023-07-20T14:45:29;1.70;;;1.15;;
19985;SDS011;10154;52.474;10.768;2023-07-20T14:47:54;2.10;;;1.00;;